sensor_id;sensor_type;location;lat;lon;timestamp;P1;durP1;ratioP1;P2;durP2;ratioP2
12218;SDS011;6172;42.646;23.344;2023-03-23T00:01:02;60.20;;;29.73;;
12218;SDS011;6172;42.646;23.344;2023-03-23T00:03:30;59.53;;;29.43;;
12218;SDS011;6172;42.646;23.344;2023-03-23T00:05:58;55.40;;;28.30;;
12218;SDS011;6172;42.646;23.344;2023-03-23T00:08:31;46.40;;;26.73;;
12218;SDS011;6172;42.646;23.344;2023-03-23T00:10:58;49.03;;;26.40;;
12218;SDS011;6172;42.646;23.344;2023-03-23T00:13:26;46.17;;;24.33;;
12218;SDS011;6172;42.646;23.344;2023-03-23T00:15:56;47.53;;;25.73;;
12218;SDS011;6172;42.646;23.344;2023-03-23T00:18:23;40.63;;;24.67;;
12218;SDS011;6172;42.646;23.344;2023-03-23T00:20:51;37.27;;;21.63;;
12218;SDS011;6172;42.646;23.344;2023-03-23T00:23:21;30.80;;;19.13;;
12218;SDS011;6172;42.646;23.344;2023-03-23T00:25:50;25.93;;;17.47;;
12218;SDS011;6172;42.646;23.344;2023-03-23T00:28:21;27.83;;;18.10;;
12218;SDS011;6172;42.646;23.344;2023-03-23T00:30:57;28.07;;;18.57;;
12218;SDS011;6172;42.646;23.344;2023-03-23T00:33:26;33.17;;;18.57;;
12218;SDS011;6172;42.646;23.344;2023-03-23T00:35:55;28.87;;;15.97;;
12218;SDS011;6172;42.646;23.344;2023-03-23T00:38:24;30.13;;;17.43;;
12218;SDS011;6172;42.646;23.344;2023-03-23T00:40:51;27.37;;;18.13;;
12218;SDS011;6172;42.646;23.344;2023-03-23T00:43:19;28.07;;;16.40;;
12218;SDS011;6172;42.646;23.344;2023-03-23T00:45:49;25.83;;;16.23;;
12218;SDS011;6172;42.646;23.344;2023-03-23T00:48:20;27.40;;;17.33;;
12218;SDS011;6172;42.646;23.344;2023-03-23T00:50:49;28.50;;;17.63;;
12218;SDS011;6172;42.646;23.344;2023-03-23T00:53:17;25.87;;;17.80;;
12218;SDS011;6172;42.646;23.344;2023-03-23T00:55:45;26.20;;;17.47;;
12218;SDS011;6172;42.646;23.344;2023-03-23T00:58:14;30.17;;;19.00;;
12218;SDS011;6172;42.646;23.344;2023-03-23T01:00:44;26.70;;;16.33;;
12218;SDS011;6172;42.646;23.344;2023-03-23T01:03:12;27.13;;;18.67;;
12218;SDS011;6172;42.646;23.344;2023-03-23T01:05:46;27.57;;;17.67;;
12218;SDS011;6172;42.646;23.344;2023-03-23T01:08:17;25.87;;;17.87;;
12218;SDS011;6172;42.646;23.344;2023-03-23T01:10:49;28.13;;;17.07;;
12218;SDS011;6172;42.646;23.344;2023-03-23T01:13:16;26.13;;;16.17;;
12218;SDS011;6172;42.646;23.344;2023-03-23T01:15:43;24.87;;;15.93;;
12218;SDS011;6172;42.646;23.344;2023-03-23T01:18:12;25.57;;;17.13;;
12218;SDS011;6172;42.646;23.344;2023-03-23T01:20:39;30.23;;;19.13;;
12218;SDS011;6172;42.646;23.344;2023-03-23T01:23:09;30.70;;;17.10;;
12218;SDS011;6172;42.646;23.344;2023-03-23T01:25:36;29.03;;;17.80;;
12218;SDS011;6172;42.646;23.344;2023-03-23T01:28:04;27.10;;;17.10;;
12218;SDS011;6172;42.646;23.344;2023-03-23T01:30:31;27.70;;;18.17;;
12218;SDS011;6172;42.646;23.344;2023-03-23T01:32:58;38.27;;;21.93;;
12218;SDS011;6172;42.646;23.344;2023-03-23T01:35:25;42.57;;;24.37;;
12218;SDS011;6172;42.646;23.344;2023-03-23T01:37:54;42.00;;;25.10;;
12218;SDS011;6172;42.646;23.344;2023-03-23T01:40:23;41.57;;;25.43;;
12218;SDS011;6172;42.646;23.344;2023-03-23T01:42:53;43.93;;;25.70;;
12218;SDS011;6172;42.646;23.344;2023-03-23T01:45:22;40.73;;;26.53;;
12218;SDS011;6172;42.646;23.344;2023-03-23T01:48:04;40.60;;;25.73;;
12218;SDS011;6172;42.646;23.344;2023-03-23T01:50:37;39.37;;;23.83;;
12218;SDS011;6172;42.646;23.344;2023-03-23T01:53:11;36.00;;;23.40;;
12218;SDS011;6172;42.646;23.344;2023-03-23T01:55:41;37.73;;;24.60;;
12218;SDS011;6172;42.646;23.344;2023-03-23T01:58:13;34.40;;;21.80;;
12218;SDS011;6172;42.646;23.344;2023-03-23T02:00:45;27.37;;;17.80;;
12218;SDS011;6172;42.646;23.344;2023-03-23T02:03:13;26.63;;;17.20;;
12218;SDS011;6172;42.646;23.344;2023-03-23T02:05:42;26.00;;;17.57;;
12218;SDS011;6172;42.646;23.344;2023-03-23T02:08:10;24.87;;;17.07;;
12218;SDS011;6172;42.646;23.344;2023-03-23T02:10:41;23.97;;;17.37;;
12218;SDS011;6172;42.646;23.344;2023-03-23T02:13:09;25.37;;;16.03;;
12218;SDS011;6172;42.646;23.344;2023-03-23T02:15:41;25.40;;;15.47;;
12218;SDS011;6172;42.646;23.344;2023-03-23T02:18:16;22.83;;;16.07;;
12218;SDS011;6172;42.646;23.344;2023-03-23T02:27:12;21.60;;;14.47;;
12218;SDS011;6172;42.646;23.344;2023-03-23T02:29:46;19.57;;;14.23;;
12218;SDS011;6172;42.646;23.344;2023-03-23T02:35:43;15.60;;;12.10;;
12218;SDS011;6172;42.646;23.344;2023-03-23T02:38:13;16.03;;;11.93;;
12218;SDS011;6172;42.646;23.344;2023-03-23T02:40:44;15.33;;;11.20;;
12218;SDS011;6172;42.646;23.344;2023-03-23T02:43:14;16.13;;;11.10;;
12218;SDS011;6172;42.646;23.344;2023-03-23T02:45:44;14.43;;;11.03;;
12218;SDS011;6172;42.646;23.344;2023-03-23T02:48:15;14.50;;;10.73;;
12218;SDS011;6172;42.646;23.344;2023-03-23T02:50:47;15.10;;;11.67;;
12218;SDS011;6172;42.646;23.344;2023-03-23T02:53:18;14.03;;;10.67;;
12218;SDS011;6172;42.646;23.344;2023-03-23T02:55:48;14.20;;;11.10;;
12218;SDS011;6172;42.646;23.344;2023-03-23T02:58:20;25.80;;;16.23;;
12218;SDS011;6172;42.646;23.344;2023-03-23T03:00:48;27.93;;;17.73;;
12218;SDS011;6172;42.646;23.344;2023-03-23T03:03:17;33.93;;;19.83;;
12218;SDS011;6172;42.646;23.344;2023-03-23T03:05:50;31.40;;;20.07;;
12218;SDS011;6172;42.646;23.344;2023-03-23T03:08:24;35.67;;;21.20;;
12218;SDS011;6172;42.646;23.344;2023-03-23T03:10:58;33.20;;;21.00;;
12218;SDS011;6172;42.646;23.344;2023-03-23T03:13:33;32.03;;;20.57;;
12218;SDS011;6172;42.646;23.344;2023-03-23T03:16:10;34.53;;;21.83;;
12218;SDS011;6172;42.646;23.344;2023-03-23T03:18:52;39.20;;;22.07;;
12218;SDS011;6172;42.646;23.344;2023-03-23T03:21:29;37.60;;;21.77;;
12218;SDS011;6172;42.646;23.344;2023-03-23T03:24:00;39.90;;;24.40;;
12218;SDS011;6172;42.646;23.344;2023-03-23T03:26:30;39.63;;;23.27;;
12218;SDS011;6172;42.646;23.344;2023-03-23T03:28:59;37.33;;;22.97;;
12218;SDS011;6172;42.646;23.344;2023-03-23T03:31:28;42.13;;;24.63;;
12218;SDS011;6172;42.646;23.344;2023-03-23T03:34:00;41.43;;;24.67;;
12218;SDS011;6172;42.646;23.344;2023-03-23T03:36:29;43.70;;;24.33;;
12218;SDS011;6172;42.646;23.344;2023-03-23T03:39:00;40.13;;;23.77;;
12218;SDS011;6172;42.646;23.344;2023-03-23T03:41:32;39.97;;;24.53;;
12218;SDS011;6172;42.646;23.344;2023-03-23T03:44:00;39.40;;;24.27;;
12218;SDS011;6172;42.646;23.344;2023-03-23T03:46:27;41.47;;;23.20;;
12218;SDS011;6172;42.646;23.344;2023-03-23T03:48:56;38.70;;;23.80;;
12218;SDS011;6172;42.646;23.344;2023-03-23T03:51:25;36.17;;;22.53;;
12218;SDS011;6172;42.646;23.344;2023-03-23T03:53:56;37.80;;;22.60;;
12218;SDS011;6172;42.646;23.344;2023-03-23T03:56:24;39.00;;;23.57;;
12218;SDS011;6172;42.646;23.344;2023-03-23T03:58:56;41.43;;;24.27;;
12218;SDS011;6172;42.646;23.344;2023-03-23T04:01:24;40.60;;;23.60;;
12218;SDS011;6172;42.646;23.344;2023-03-23T04:03:53;39.53;;;24.17;;
12218;SDS011;6172;42.646;23.344;2023-03-23T04:06:21;40.63;;;24.03;;
12218;SDS011;6172;42.646;23.344;2023-03-23T04:08:50;40.03;;;23.93;;
12218;SDS011;6172;42.646;23.344;2023-03-23T04:11:17;45.47;;;24.53;;
12218;SDS011;6172;42.646;23.344;2023-03-23T04:13:44;41.87;;;25.30;;
12218;SDS011;6172;42.646;23.344;2023-03-23T04:16:11;45.43;;;25.43;;
12218;SDS011;6172;42.646;23.344;2023-03-23T04:18:38;39.20;;;25.37;;
12218;SDS011;6172;42.646;23.344;2023-03-23T04:21:07;43.40;;;25.87;;
12218;SDS011;6172;42.646;23.344;2023-03-23T04:23:37;43.87;;;26.03;;
12218;SDS011;6172;42.646;23.344;2023-03-23T04:26:06;43.40;;;26.03;;
12218;SDS011;6172;42.646;23.344;2023-03-23T04:28:38;40.90;;;25.67;;
12218;SDS011;6172;42.646;23.344;2023-03-23T04:31:06;46.97;;;25.73;;
12218;SDS011;6172;42.646;23.344;2023-03-23T04:33:35;43.70;;;24.57;;
12218;SDS011;6172;42.646;23.344;2023-03-23T04:36:02;40.73;;;24.70;;
12218;SDS011;6172;42.646;23.344;2023-03-23T04:38:31;39.53;;;24.17;;
12218;SDS011;6172;42.646;23.344;2023-03-23T04:41:00;42.60;;;23.93;;
12218;SDS011;6172;42.646;23.344;2023-03-23T04:43:29;38.53;;;23.57;;
12218;SDS011;6172;42.646;23.344;2023-03-23T04:45:58;40.50;;;23.03;;
12218;SDS011;6172;42.646;23.344;2023-03-23T04:48:27;38.87;;;23.53;;
12218;SDS011;6172;42.646;23.344;2023-03-23T04:50:58;34.20;;;21.57;;
12218;SDS011;6172;42.646;23.344;2023-03-23T04:53:28;31.93;;;19.50;;
12218;SDS011;6172;42.646;23.344;2023-03-23T04:55:55;39.90;;;22.20;;
12218;SDS011;6172;42.646;23.344;2023-03-23T04:58:22;39.07;;;24.40;;
12218;SDS011;6172;42.646;23.344;2023-03-23T05:00:54;37.90;;;22.70;;
12218;SDS011;6172;42.646;23.344;2023-03-23T05:03:22;42.80;;;24.50;;
12218;SDS011;6172;42.646;23.344;2023-03-23T05:05:50;46.80;;;25.63;;
12218;SDS011;6172;42.646;23.344;2023-03-23T05:08:18;43.67;;;27.37;;
12218;SDS011;6172;42.646;23.344;2023-03-23T05:10:49;45.67;;;27.10;;
12218;SDS011;6172;42.646;23.344;2023-03-23T05:13:18;48.10;;;29.10;;
12218;SDS011;6172;42.646;23.344;2023-03-23T05:15:45;45.70;;;28.40;;
12218;SDS011;6172;42.646;23.344;2023-03-23T05:18:14;43.43;;;26.93;;
12218;SDS011;6172;42.646;23.344;2023-03-23T05:20:45;46.07;;;28.87;;
12218;SDS011;6172;42.646;23.344;2023-03-23T05:23:14;44.90;;;27.37;;
12218;SDS011;6172;42.646;23.344;2023-03-23T05:25:51;41.67;;;25.17;;
12218;SDS011;6172;42.646;23.344;2023-03-23T05:28:20;35.70;;;22.57;;
12218;SDS011;6172;42.646;23.344;2023-03-23T05:30:48;30.20;;;20.23;;
12218;SDS011;6172;42.646;23.344;2023-03-23T05:33:17;28.67;;;19.20;;
12218;SDS011;6172;42.646;23.344;2023-03-23T05:35:46;31.60;;;18.83;;
12218;SDS011;6172;42.646;23.344;2023-03-23T05:38:14;31.13;;;18.67;;
12218;SDS011;6172;42.646;23.344;2023-03-23T05:40:41;27.43;;;17.07;;
12218;SDS011;6172;42.646;23.344;2023-03-23T05:43:09;31.07;;;18.33;;
12218;SDS011;6172;42.646;23.344;2023-03-23T05:45:36;32.30;;;18.27;;
12218;SDS011;6172;42.646;23.344;2023-03-23T05:48:03;28.03;;;18.93;;
12218;SDS011;6172;42.646;23.344;2023-03-23T05:50:32;26.67;;;18.43;;
12218;SDS011;6172;42.646;23.344;2023-03-23T05:52:59;31.10;;;17.97;;
12218;SDS011;6172;42.646;23.344;2023-03-23T05:55:29;29.23;;;18.70;;
12218;SDS011;6172;42.646;23.344;2023-03-23T05:57:56;32.60;;;19.33;;
12218;SDS011;6172;42.646;23.344;2023-03-23T06:00:25;30.57;;;18.77;;
12218;SDS011;6172;42.646;23.344;2023-03-23T06:02:55;32.37;;;18.33;;
12218;SDS011;6172;42.646;23.344;2023-03-23T06:05:22;27.43;;;18.60;;
12218;SDS011;6172;42.646;23.344;2023-03-23T06:07:52;26.93;;;16.63;;
12218;SDS011;6172;42.646;23.344;2023-03-23T06:10:21;23.87;;;17.03;;
12218;SDS011;6172;42.646;23.344;2023-03-23T06:12:49;22.50;;;15.17;;
12218;SDS011;6172;42.646;23.344;2023-03-23T06:15:16;25.33;;;16.90;;
12218;SDS011;6172;42.646;23.344;2023-03-23T06:17:44;29.00;;;17.53;;
12218;SDS011;6172;42.646;23.344;2023-03-23T06:20:12;24.53;;;16.17;;
12218;SDS011;6172;42.646;23.344;2023-03-23T06:22:40;31.93;;;16.87;;
12218;SDS011;6172;42.646;23.344;2023-03-23T06:25:08;29.23;;;17.47;;
12218;SDS011;6172;42.646;23.344;2023-03-23T06:27:38;29.80;;;18.03;;
12218;SDS011;6172;42.646;23.344;2023-03-23T06:30:06;31.23;;;19.27;;
12218;SDS011;6172;42.646;23.344;2023-03-23T06:32:49;34.17;;;19.57;;
12218;SDS011;6172;42.646;23.344;2023-03-23T06:35:16;27.43;;;17.60;;
12218;SDS011;6172;42.646;23.344;2023-03-23T06:37:43;25.67;;;16.47;;
12218;SDS011;6172;42.646;23.344;2023-03-23T06:40:12;31.60;;;18.50;;
12218;SDS011;6172;42.646;23.344;2023-03-23T06:42:38;26.10;;;16.17;;
12218;SDS011;6172;42.646;23.344;2023-03-23T06:45:06;24.03;;;15.87;;
12218;SDS011;6172;42.646;23.344;2023-03-23T06:47:34;25.17;;;15.47;;
12218;SDS011;6172;42.646;23.344;2023-03-23T06:50:01;28.00;;;15.37;;
12218;SDS011;6172;42.646;23.344;2023-03-23T06:52:28;23.07;;;14.97;;
12218;SDS011;6172;42.646;23.344;2023-03-23T06:54:55;20.07;;;14.47;;
12218;SDS011;6172;42.646;23.344;2023-03-23T06:57:23;23.33;;;15.00;;
12218;SDS011;6172;42.646;23.344;2023-03-23T06:59:51;20.53;;;13.80;;
12218;SDS011;6172;42.646;23.344;2023-03-23T07:02:18;20.37;;;13.47;;
12218;SDS011;6172;42.646;23.344;2023-03-23T07:04:45;16.80;;;13.37;;
12218;SDS011;6172;42.646;23.344;2023-03-23T07:07:12;21.93;;;14.93;;
12218;SDS011;6172;42.646;23.344;2023-03-23T07:09:40;26.23;;;14.63;;
12218;SDS011;6172;42.646;23.344;2023-03-23T07:12:08;23.83;;;15.63;;
12218;SDS011;6172;42.646;23.344;2023-03-23T07:14:37;23.77;;;15.17;;
12218;SDS011;6172;42.646;23.344;2023-03-23T07:17:04;19.63;;;15.17;;
12218;SDS011;6172;42.646;23.344;2023-03-23T07:19:32;21.10;;;14.40;;
12218;SDS011;6172;42.646;23.344;2023-03-23T07:22:01;22.70;;;15.33;;
12218;SDS011;6172;42.646;23.344;2023-03-23T07:24:30;20.57;;;14.50;;
12218;SDS011;6172;42.646;23.344;2023-03-23T07:26:57;20.03;;;15.23;;
12218;SDS011;6172;42.646;23.344;2023-03-23T07:29:24;20.63;;;15.33;;
12218;SDS011;6172;42.646;23.344;2023-03-23T07:31:54;16.67;;;13.90;;
12218;SDS011;6172;42.646;23.344;2023-03-23T07:34:21;16.60;;;13.43;;
12218;SDS011;6172;42.646;23.344;2023-03-23T07:36:48;23.90;;;14.70;;
12218;SDS011;6172;42.646;23.344;2023-03-23T07:39:15;20.40;;;15.23;;
12218;SDS011;6172;42.646;23.344;2023-03-23T07:41:42;19.33;;;14.53;;
12218;SDS011;6172;42.646;23.344;2023-03-23T07:44:12;16.70;;;14.30;;
12218;SDS011;6172;42.646;23.344;2023-03-23T07:46:39;18.97;;;13.87;;
12218;SDS011;6172;42.646;23.344;2023-03-23T07:49:10;21.93;;;14.80;;
12218;SDS011;6172;42.646;23.344;2023-03-23T07:51:38;23.10;;;14.63;;
12218;SDS011;6172;42.646;23.344;2023-03-23T07:54:05;21.57;;;14.60;;
12218;SDS011;6172;42.646;23.344;2023-03-23T07:56:32;22.10;;;14.93;;
12218;SDS011;6172;42.646;23.344;2023-03-23T07:59:00;17.30;;;14.07;;
12218;SDS011;6172;42.646;23.344;2023-03-23T08:01:27;19.77;;;14.23;;
12218;SDS011;6172;42.646;23.344;2023-03-23T08:03:54;21.00;;;13.67;;
12218;SDS011;6172;42.646;23.344;2023-03-23T08:06:24;17.60;;;13.20;;
12218;SDS011;6172;42.646;23.344;2023-03-23T08:08:50;21.00;;;14.30;;
12218;SDS011;6172;42.646;23.344;2023-03-23T08:11:18;14.60;;;11.73;;
12218;SDS011;6172;42.646;23.344;2023-03-23T08:13:46;13.20;;;11.53;;
12218;SDS011;6172;42.646;23.344;2023-03-23T08:16:14;14.70;;;11.83;;
12218;SDS011;6172;42.646;23.344;2023-03-23T08:18:44;18.10;;;13.10;;
12218;SDS011;6172;42.646;23.344;2023-03-23T08:21:11;15.50;;;12.77;;
12218;SDS011;6172;42.646;23.344;2023-03-23T08:23:39;19.07;;;13.43;;
12218;SDS011;6172;42.646;23.344;2023-03-23T08:26:07;17.93;;;13.07;;
12218;SDS011;6172;42.646;23.344;2023-03-23T08:28:35;21.60;;;13.70;;
12218;SDS011;6172;42.646;23.344;2023-03-23T08:31:05;22.60;;;13.73;;
12218;SDS011;6172;42.646;23.344;2023-03-23T08:33:34;15.63;;;12.37;;
12218;SDS011;6172;42.646;23.344;2023-03-23T08:38:33;17.83;;;12.00;;
12218;SDS011;6172;42.646;23.344;2023-03-23T08:41:05;15.83;;;12.07;;
12218;SDS011;6172;42.646;23.344;2023-03-23T08:43:35;16.17;;;12.13;;
12218;SDS011;6172;42.646;23.344;2023-03-23T08:46:05;13.67;;;11.73;;
12218;SDS011;6172;42.646;23.344;2023-03-23T08:48:35;14.27;;;11.03;;
12218;SDS011;6172;42.646;23.344;2023-03-23T08:51:03;14.13;;;9.13;;
12218;SDS011;6172;42.646;23.344;2023-03-23T08:53:31;6.83;;;6.13;;
12218;SDS011;6172;42.646;23.344;2023-03-23T08:56:04;12.83;;;8.07;;
12218;SDS011;6172;42.646;23.344;2023-03-23T08:58:34;15.27;;;9.27;;
12218;SDS011;6172;42.646;23.344;2023-03-23T09:01:01;9.63;;;7.37;;
12218;SDS011;6172;42.646;23.344;2023-03-23T09:03:28;6.90;;;5.57;;
12218;SDS011;6172;42.646;23.344;2023-03-23T09:05:58;6.43;;;4.70;;
12218;SDS011;6172;42.646;23.344;2023-03-23T09:08:25;10.93;;;5.87;;
12218;SDS011;6172;42.646;23.344;2023-03-23T09:10:53;6.87;;;5.87;;
12218;SDS011;6172;42.646;23.344;2023-03-23T09:13:23;8.33;;;6.00;;
12218;SDS011;6172;42.646;23.344;2023-03-23T09:15:49;15.00;;;6.53;;
12218;SDS011;6172;42.646;23.344;2023-03-23T09:18:17;7.50;;;6.50;;
12218;SDS011;6172;42.646;23.344;2023-03-23T09:20:45;11.03;;;6.47;;
12218;SDS011;6172;42.646;23.344;2023-03-23T09:23:12;8.93;;;6.97;;
12218;SDS011;6172;42.646;23.344;2023-03-23T09:25:40;11.77;;;7.32;;
12218;SDS011;6172;42.646;23.344;2023-03-23T09:28:07;8.43;;;6.47;;
12218;SDS011;6172;42.646;23.344;2023-03-23T09:30:36;9.47;;;6.87;;
12218;SDS011;6172;42.646;23.344;2023-03-23T09:33:05;7.00;;;5.97;;
12218;SDS011;6172;42.646;23.344;2023-03-23T09:35:34;12.10;;;6.57;;
12218;SDS011;6172;42.646;23.344;2023-03-23T09:38:14;7.17;;;5.67;;
12218;SDS011;6172;42.646;23.344;2023-03-23T09:40:43;12.20;;;6.57;;
12218;SDS011;6172;42.646;23.344;2023-03-23T09:43:19;7.90;;;6.20;;
12218;SDS011;6172;42.646;23.344;2023-03-23T09:46:00;7.43;;;6.60;;
12218;SDS011;6172;42.646;23.344;2023-03-23T09:48:42;9.87;;;6.40;;
12218;SDS011;6172;42.646;23.344;2023-03-23T09:51:18;9.10;;;6.87;;
12218;SDS011;6172;42.646;23.344;2023-03-23T09:53:57;7.90;;;7.10;;
12218;SDS011;6172;42.646;23.344;2023-03-23T09:56:30;6.83;;;5.90;;
12218;SDS011;6172;42.646;23.344;2023-03-23T09:59:00;15.40;;;7.47;;
12218;SDS011;6172;42.646;23.344;2023-03-23T10:01:36;11.17;;;6.33;;
12218;SDS011;6172;42.646;23.344;2023-03-23T10:04:08;11.20;;;6.57;;
12218;SDS011;6172;42.646;23.344;2023-03-23T10:06:38;11.87;;;6.40;;
12218;SDS011;6172;42.646;23.344;2023-03-23T10:09:05;7.23;;;6.17;;
12218;SDS011;6172;42.646;23.344;2023-03-23T10:11:38;5.90;;;5.20;;
12218;SDS011;6172;42.646;23.344;2023-03-23T10:14:16;6.30;;;5.60;;
12218;SDS011;6172;42.646;23.344;2023-03-23T10:16:55;5.70;;;5.10;;
12218;SDS011;6172;42.646;23.344;2023-03-23T10:19:28;5.87;;;5.07;;
12218;SDS011;6172;42.646;23.344;2023-03-23T10:22:02;5.97;;;5.10;;
12218;SDS011;6172;42.646;23.344;2023-03-23T10:24:34;4.97;;;4.47;;
12218;SDS011;6172;42.646;23.344;2023-03-23T10:27:07;7.10;;;5.90;;
12218;SDS011;6172;42.646;23.344;2023-03-23T10:29:45;6.93;;;4.63;;
12218;SDS011;6172;42.646;23.344;2023-03-23T10:32:23;8.23;;;5.50;;
12218;SDS011;6172;42.646;23.344;2023-03-23T10:35:05;7.33;;;5.00;;
12218;SDS011;6172;42.646;23.344;2023-03-23T10:37:43;10.90;;;5.47;;
12218;SDS011;6172;42.646;23.344;2023-03-23T10:43:14;8.00;;;4.90;;
12218;SDS011;6172;42.646;23.344;2023-03-23T10:45:42;11.67;;;6.20;;
12218;SDS011;6172;42.646;23.344;2023-03-23T10:48:16;7.77;;;5.67;;
12218;SDS011;6172;42.646;23.344;2023-03-23T10:50:46;6.37;;;5.67;;
12218;SDS011;6172;42.646;23.344;2023-03-23T10:53:19;7.73;;;5.53;;
12218;SDS011;6172;42.646;23.344;2023-03-23T10:55:48;6.40;;;4.70;;
12218;SDS011;6172;42.646;23.344;2023-03-23T10:58:22;6.07;;;5.23;;
12218;SDS011;6172;42.646;23.344;2023-03-23T11:00:50;6.53;;;5.47;;
12218;SDS011;6172;42.646;23.344;2023-03-23T11:03:24;11.43;;;5.77;;
12218;SDS011;6172;42.646;23.344;2023-03-23T11:05:55;9.27;;;5.60;;
12218;SDS011;6172;42.646;23.344;2023-03-23T11:08:24;6.78;;;5.43;;
12218;SDS011;6172;42.646;23.344;2023-03-23T11:10:54;6.28;;;5.60;;
12218;SDS011;6172;42.646;23.344;2023-03-23T11:13:27;6.20;;;5.57;;
12218;SDS011;6172;42.646;23.344;2023-03-23T11:15:56;6.85;;;5.47;;
12218;SDS011;6172;42.646;23.344;2023-03-23T11:18:25;7.93;;;5.30;;
12218;SDS011;6172;42.646;23.344;2023-03-23T11:21:01;9.03;;;5.53;;
12218;SDS011;6172;42.646;23.344;2023-03-23T11:23:32;5.80;;;5.20;;
12218;SDS011;6172;42.646;23.344;2023-03-23T11:26:05;7.30;;;5.03;;
12218;SDS011;6172;42.646;23.344;2023-03-23T11:28:36;6.83;;;5.47;;
12218;SDS011;6172;42.646;23.344;2023-03-23T11:31:10;6.83;;;5.30;;
12218;SDS011;6172;42.646;23.344;2023-03-23T11:33:41;6.57;;;5.10;;
12218;SDS011;6172;42.646;23.344;2023-03-23T11:36:15;8.23;;;4.95;;
12218;SDS011;6172;42.646;23.344;2023-03-23T11:38:42;6.80;;;4.55;;
12218;SDS011;6172;42.646;23.344;2023-03-23T11:41:11;6.07;;;4.93;;
12218;SDS011;6172;42.646;23.344;2023-03-23T11:43:39;9.45;;;5.30;;
12218;SDS011;6172;42.646;23.344;2023-03-23T11:46:21;7.60;;;5.47;;
12218;SDS011;6172;42.646;23.344;2023-03-23T11:49:00;8.27;;;5.18;;
12218;SDS011;6172;42.646;23.344;2023-03-23T11:51:30;5.53;;;5.00;;
12218;SDS011;6172;42.646;23.344;2023-03-23T11:54:04;6.70;;;5.20;;
12218;SDS011;6172;42.646;23.344;2023-03-23T11:56:41;6.93;;;4.70;;
12218;SDS011;6172;42.646;23.344;2023-03-23T11:59:10;6.68;;;5.38;;
12218;SDS011;6172;42.646;23.344;2023-03-23T12:01:50;6.30;;;4.95;;
12218;SDS011;6172;42.646;23.344;2023-03-23T12:04:27;6.72;;;5.55;;
12218;SDS011;6172;42.646;23.344;2023-03-23T12:07:10;7.55;;;4.75;;
12218;SDS011;6172;42.646;23.344;2023-03-23T12:09:47;5.90;;;4.88;;
12218;SDS011;6172;42.646;23.344;2023-03-23T12:12:20;7.95;;;5.03;;
12218;SDS011;6172;42.646;23.344;2023-03-23T12:14:53;5.20;;;4.70;;
12218;SDS011;6172;42.646;23.344;2023-03-23T12:17:30;6.67;;;5.33;;
12218;SDS011;6172;42.646;23.344;2023-03-23T12:20:09;6.90;;;4.70;;
12218;SDS011;6172;42.646;23.344;2023-03-23T12:22:49;8.80;;;5.10;;
12218;SDS011;6172;42.646;23.344;2023-03-23T12:25:41;7.20;;;5.00;;
12218;SDS011;6172;42.646;23.344;2023-03-23T12:28:20;6.27;;;4.57;;
12218;SDS011;6172;42.646;23.344;2023-03-23T12:30:56;7.57;;;5.30;;
12218;SDS011;6172;42.646;23.344;2023-03-23T12:33:33;6.87;;;4.90;;
12218;SDS011;6172;42.646;23.344;2023-03-23T12:36:15;6.17;;;4.07;;
12218;SDS011;6172;42.646;23.344;2023-03-23T12:39:03;5.40;;;4.50;;
12218;SDS011;6172;42.646;23.344;2023-03-23T12:41:52;6.47;;;4.80;;
12218;SDS011;6172;42.646;23.344;2023-03-23T12:44:31;5.57;;;4.50;;
12218;SDS011;6172;42.646;23.344;2023-03-23T12:47:06;5.97;;;4.40;;
12218;SDS011;6172;42.646;23.344;2023-03-23T12:49:41;4.67;;;4.20;;
12218;SDS011;6172;42.646;23.344;2023-03-23T12:52:16;4.63;;;4.13;;
12218;SDS011;6172;42.646;23.344;2023-03-23T12:54:49;7.50;;;4.90;;
12218;SDS011;6172;42.646;23.344;2023-03-23T12:57:21;5.20;;;4.53;;
12218;SDS011;6172;42.646;23.344;2023-03-23T12:59:59;6.97;;;4.03;;
12218;SDS011;6172;42.646;23.344;2023-03-23T13:02:37;8.17;;;4.67;;
12218;SDS011;6172;42.646;23.344;2023-03-23T13:05:09;7.47;;;4.67;;
12218;SDS011;6172;42.646;23.344;2023-03-23T13:07:55;5.07;;;4.10;;
12218;SDS011;6172;42.646;23.344;2023-03-23T13:10:26;4.93;;;4.27;;
12218;SDS011;6172;42.646;23.344;2023-03-23T13:12:56;6.27;;;4.50;;
12218;SDS011;6172;42.646;23.344;2023-03-23T13:15:27;8.67;;;4.80;;
12218;SDS011;6172;42.646;23.344;2023-03-23T13:18:02;8.60;;;4.67;;
12218;SDS011;6172;42.646;23.344;2023-03-23T13:20:40;6.77;;;4.23;;
12218;SDS011;6172;42.646;23.344;2023-03-23T13:23:17;5.93;;;4.40;;
12218;SDS011;6172;42.646;23.344;2023-03-23T13:25:51;5.80;;;4.50;;
12218;SDS011;6172;42.646;23.344;2023-03-23T13:28:24;9.30;;;4.67;;
12218;SDS011;6172;42.646;23.344;2023-03-23T13:31:00;5.80;;;4.40;;
12218;SDS011;6172;42.646;23.344;2023-03-23T13:33:31;5.07;;;4.20;;
12218;SDS011;6172;42.646;23.344;2023-03-23T13:36:02;7.40;;;4.80;;
12218;SDS011;6172;42.646;23.344;2023-03-23T13:38:44;5.47;;;4.30;;
12218;SDS011;6172;42.646;23.344;2023-03-23T13:41:14;11.30;;;4.50;;
12218;SDS011;6172;42.646;23.344;2023-03-23T13:43:47;7.70;;;4.50;;
12218;SDS011;6172;42.646;23.344;2023-03-23T13:46:27;5.17;;;4.27;;
12218;SDS011;6172;42.646;23.344;2023-03-23T13:49:15;6.17;;;3.83;;
12218;SDS011;6172;42.646;23.344;2023-03-23T13:52:13;4.90;;;4.40;;
12218;SDS011;6172;42.646;23.344;2023-03-23T13:54:47;6.50;;;4.70;;
12218;SDS011;6172;42.646;23.344;2023-03-23T13:57:19;4.37;;;3.97;;
12218;SDS011;6172;42.646;23.344;2023-03-23T13:59:55;6.73;;;4.80;;
12218;SDS011;6172;42.646;23.344;2023-03-23T14:02:28;5.03;;;4.53;;
12218;SDS011;6172;42.646;23.344;2023-03-23T14:05:08;6.53;;;4.20;;
12218;SDS011;6172;42.646;23.344;2023-03-23T14:07:52;6.47;;;4.57;;
12218;SDS011;6172;42.646;23.344;2023-03-23T14:10:22;8.37;;;4.50;;
12218;SDS011;6172;42.646;23.344;2023-03-23T14:12:52;8.77;;;4.47;;
12218;SDS011;6172;42.646;23.344;2023-03-23T14:15:21;4.83;;;4.10;;
12218;SDS011;6172;42.646;23.344;2023-03-23T14:17:57;4.73;;;4.33;;
12218;SDS011;6172;42.646;23.344;2023-03-23T14:20:30;11.23;;;4.70;;
12218;SDS011;6172;42.646;23.344;2023-03-23T14:22:59;9.93;;;4.93;;
12218;SDS011;6172;42.646;23.344;2023-03-23T14:25:29;10.03;;;4.63;;
12218;SDS011;6172;42.646;23.344;2023-03-23T14:27:57;6.97;;;4.40;;
12218;SDS011;6172;42.646;23.344;2023-03-23T14:30:34;9.67;;;4.30;;
12218;SDS011;6172;42.646;23.344;2023-03-23T14:33:04;8.43;;;4.27;;
12218;SDS011;6172;42.646;23.344;2023-03-23T14:35:35;5.47;;;4.20;;
12218;SDS011;6172;42.646;23.344;2023-03-23T14:38:07;7.07;;;4.43;;
12218;SDS011;6172;42.646;23.344;2023-03-23T14:40:45;9.40;;;5.00;;
12218;SDS011;6172;42.646;23.344;2023-03-23T14:43:26;7.03;;;4.27;;
12218;SDS011;6172;42.646;23.344;2023-03-23T14:46:00;6.50;;;4.47;;
12218;SDS011;6172;42.646;23.344;2023-03-23T14:48:31;7.73;;;4.13;;
12218;SDS011;6172;42.646;23.344;2023-03-23T14:50:59;6.67;;;4.20;;
12218;SDS011;6172;42.646;23.344;2023-03-23T14:53:31;6.27;;;4.00;;
12218;SDS011;6172;42.646;23.344;2023-03-23T14:56:09;6.30;;;4.47;;
12218;SDS011;6172;42.646;23.344;2023-03-23T14:58:43;4.97;;;3.90;;
12218;SDS011;6172;42.646;23.344;2023-03-23T15:01:11;5.90;;;4.27;;
12218;SDS011;6172;42.646;23.344;2023-03-23T15:03:42;8.40;;;4.20;;
12218;SDS011;6172;42.646;23.344;2023-03-23T15:06:13;8.70;;;4.50;;
12218;SDS011;6172;42.646;23.344;2023-03-23T15:08:43;5.53;;;3.90;;